Time;durP1;ratioP1;P1;durP2;ratioP2;P2;SDS_P1;SDS_P2;PMS_P1;PMS_P2;Temp;Humidity;BMP_temperature;BMP_pressure;BME280_temperature;BME280_humidity;BME280_pressure;Samples;Min_cycle;Max_cycle;Signal;HPM_P1;HPM_P2
2022/01/19 00:00:03;;;;;;;8.85;4.72;;;;;;;3.94;80.93;102347.52;1736261;81;21067;-74
2022/01/19 00:02:30;;;;;;;10.50;4.62;;;;;;;3.97;80.90;102336.94;1735811;82;21044;-74
2022/01/19 00:04:56;;;;;;;7.87;4.78;;;;;;;4.02;80.88;102339.92;1736144;81;21079;-74
2022/01/19 00:07:23;;;;;;;12.30;5.03;;;;;;;4.06;80.81;102330.23;1736800;81;21633;-74
2022/01/19 00:09:53;;;;;;;7.20;4.87;;;;;;;4.09;80.79;102318.35;1736424;82;21958;-75
2022/01/19 00:12:21;;;;;;;8.90;4.35;;;;;;;4.12;80.73;102325.48;1736180;82;21103;-75
2022/01/19 00:14:50;;;;;;;9.45;5.42;;;;;;;4.16;80.66;102317.51;1735985;81;21645;-75
2022/01/19 00:17:20;;;;;;;9.98;5.87;;;;;;;4.19;80.63;102321.66;1736731;81;21124;-75
2022/01/19 00:19:50;;;;;;;10.00;4.97;;;;;;;4.20;80.57;102315.64;1735373;81;21126;-75
2022/01/19 00:22:21;;;;;;;10.05;5.33;;;;;;;4.22;80.53;102312.75;1719937;82;21763;-75
2022/01/19 00:24:49;;;;;;;10.13;4.90;;;;;;;4.23;80.46;102315.88;1735926;81;21079;-75
2022/01/19 00:27:19;;;;;;;14.28;5.40;;;;;;;4.26;80.44;102312.19;1736374;82;29398;-75
2022/01/19 00:29:47;;;;;;;10.98;5.40;;;;;;;4.27;80.38;102306.20;1735949;82;21557;-75
2022/01/19 00:32:16;;;;;;;12.70;5.47;;;;;;;4.29;80.32;102309.82;1735952;82;21100;-75
2022/01/19 00:34:43;;;;;;;8.05;4.85;;;;;;;4.30;80.34;102299.92;1719824;82;22485;-75
2022/01/19 00:37:09;;;;;;;14.38;6.05;;;;;;;4.32;80.27;102300.94;1736598;81;21063;-75
2022/01/19 00:39:40;;;;;;;10.05;5.50;;;;;;;4.35;80.27;102298.54;1736527;82;21055;-75
2022/01/19 00:42:05;;;;;;;11.35;5.37;;;;;;;4.38;80.25;102280.53;1735499;81;21111;-75
2022/01/19 00:44:33;;;;;;;9.35;5.40;;;;;;;4.39;80.10;102284.04;1736582;81;21082;-75
2022/01/19 00:47:02;;;;;;;9.00;5.10;;;;;;;4.38;80.08;102271.41;1736413;82;21774;-75
2022/01/19 00:49:28;;;;;;;10.10;6.20;;;;;;;4.39;80.00;102282.73;1736467;82;21096;-75
2022/01/19 00:51:55;;;;;;;12.80;6.22;;;;;;;4.38;80.02;102270.11;1736460;81;21094;-75
2022/01/19 00:54:22;;;;;;;10.98;5.70;;;;;;;4.40;79.98;102271.13;1736531;81;21103;-75
2022/01/19 00:56:50;;;;;;;9.50;5.28;;;;;;;4.43;79.99;102273.03;1736204;82;21083;-75
2022/01/19 00:59:17;;;;;;;10.93;4.92;;;;;;;4.43;79.94;102276.58;1736755;81;21708;-75
2022/01/19 01:01:44;;;;;;;10.28;5.20;;;;;;;4.46;79.89;102266.35;1736642;81;21056;-75
2022/01/19 01:04:14;;;;;;;10.05;4.53;;;;;;;4.47;79.83;102270.80;1736448;82;21086;-75
2022/01/19 01:06:41;;;;;;;8.73;4.45;;;;;;;4.50;79.81;102263.98;1736443;82;21630;-75
2022/01/19 01:09:08;;;;;;;8.90;4.60;;;;;;;4.52;79.79;102264.59;1736461;81;21079;-75
2022/01/19 01:11:47;;;;;;;8.90;3.80;;;;;;;4.56;79.77;102269.27;1736517;82;21756;-75
2022/01/19 01:16:37;;;;;;;7.08;4.20;;;;;;;4.59;79.66;102259.05;1736514;82;21075;-75
2022/01/19 01:19:09;;;;;;;7.35;3.75;;;;;;;4.60;79.60;102238.70;1736173;82;21131;-75
2022/01/19 01:21:34;;;;;;;12.07;3.87;;;;;;;4.60;79.52;102236.50;1735951;81;21091;-75
2022/01/19 01:24:00;;;;;;;10.43;3.72;;;;;;;4.60;79.44;102235.20;1736245;81;21236;-75
2022/01/19 01:26:27;;;;;;;9.03;3.90;;;;;;;4.61;79.49;102229.17;1736484;82;21071;-75
2022/01/19 01:28:54;;;;;;;9.90;3.95;;;;;;;4.62;79.50;102225.38;1736416;81;21060;-75
2022/01/19 01:31:20;;;;;;;12.65;4.03;;;;;;;4.62;79.48;102221.46;1736508;81;21190;-75
2022/01/19 01:33:50;;;;;;;12.95;4.90;;;;;;;4.62;79.39;102221.88;1736389;82;21326;-75
2022/01/19 01:36:16;;;;;;;8.90;4.40;;;;;;;4.60;79.34;102225.66;1735675;81;21750;-75
2022/01/19 01:38:44;;;;;;;11.10;4.35;;;;;;;4.61;79.37;102220.05;1735517;81;21724;-75
2022/01/19 01:41:14;;;;;;;6.62;3.70;;;;;;;4.60;79.39;102217.84;1735352;81;22318;-75
2022/01/19 01:43:42;;;;;;;8.83;4.28;;;;;;;4.62;79.38;102220.56;1736959;81;21107;-75
2022/01/19 01:46:18;;;;;;;6.67;3.83;;;;;;;4.61;79.25;102204.39;1736488;81;21185;-75
2022/01/19 01:48:45;;;;;;;7.95;3.85;;;;;;;4.59;79.18;102205.58;1735180;81;21216;-75
2022/01/19 01:53:58;;;;;;;12.35;3.80;;;;;;;4.58;79.24;102196.34;1736273;81;21083;-74
2022/01/19 01:56:25;;;;;;;6.00;3.58;;;;;;;4.59;79.24;102203.37;1736608;82;21533;-74
2022/01/19 01:58:52;;;;;;;7.58;3.80;;;;;;;4.60;79.30;102199.58;1736434;81;21087;-74
2022/01/19 02:01:22;;;;;;;10.00;4.08;;;;;;;4.63;79.32;102199.78;1735888;81;22495;-74
2022/01/19 02:03:51;;;;;;;9.28;3.58;;;;;;;4.65;79.27;102187.80;1736047;81;21684;-75
2022/01/19 02:15:50;;;;;;;;;;;;;;;4.69;79.22;102174.54;1739077;81;22127;-75
2022/01/19 02:21:59;;;;;;;11.33;3.90;;;;;;;4.74;79.04;102152.31;1780754;80;21121;-74
2022/01/19 02:24:40;;;;;;;11.63;4.00;;;;;;;4.73;78.98;102166.17;1780802;80;21010;-75
2022/01/19 02:27:09;;;;;;;8.40;3.33;;;;;;;4.70;78.96;102178.98;1754661;80;21060;-74
2022/01/19 02:40:29;;;;;;;10.45;3.70;;;;;;;4.75;78.92;102161.03;1781316;80;21771;-74
2022/01/19 02:50:44;;;;;;;10.63;3.98;;;;;;;4.76;78.75;102148.10;1781063;80;21076;-74
2022/01/19 02:53:12;;;;;;;11.45;4.25;;;;;;;4.76;78.76;102144.19;1780495;79;21916;-75
2022/01/19 02:55:39;;;;;;;7.87;3.95;;;;;;;4.79;78.74;102146.13;1780542;80;21045;-75
2022/01/19 02:58:06;;;;;;;11.93;4.67;;;;;;;4.70;78.59;102120.29;1781019;79;21077;-74
2022/01/19 03:08:48;;;;;;;14.05;5.10;;;;;;;4.54;78.34;102118.69;1780132;79;21109;-74
2022/01/19 03:11:17;;;;;;;11.80;6.42;;;;;;;4.50;78.42;102114.05;1780290;80;21591;-73
2022/01/19 03:13:46;;;;;;;9.63;4.70;;;;;;;4.48;78.54;102110.92;1780089;79;21066;-73
2022/01/19 03:16:12;;;;;;;13.32;5.15;;;;;;;4.50;78.54;102110.14;1780711;79;20990;-73
2022/01/19 03:18:41;;;;;;;13.25;4.55;;;;;;;4.48;78.52;102107.42;1780198;79;21057;-73
2022/01/19 03:21:09;;;;;;;10.15;5.78;;;;;;;4.47;78.50;102100.41;1751379;80;21060;-74
2022/01/19 03:23:36;;;;;;;11.83;5.20;;;;;;;4.43;78.44;102095.75;1780852;79;21494;-74
2022/01/19 03:26:07;;;;;;;9.15;5.12;;;;;;;4.39;78.36;102085.91;1780715;80;21054;-74
2022/01/19 03:28:34;;;;;;;11.15;5.05;;;;;;;4.34;78.35;102080.38;1780307;80;21069;-73
2022/01/19 03:31:03;;;;;;;11.10;5.45;;;;;;;4.31;78.34;102068.41;1780460;79;21793;-73
2022/01/19 03:33:32;;;;;;;9.68;5.22;;;;;;;4.26;78.28;102061.59;1779934;80;21033;-74
2022/01/19 03:35:59;;;;;;;12.15;5.78;;;;;;;4.19;78.18;102053.22;1780530;79;21041;-74
2022/01/19 03:38:25;;;;;;;11.12;5.28;;;;;;;4.06;78.17;102047.12;1780671;79;21682;-74
2022/01/19 03:40:52;;;;;;;11.50;5.60;;;;;;;3.99;78.18;102060.89;1780646;80;21142;-74
2022/01/19 03:43:19;;;;;;;10.53;5.70;;;;;;;3.92;78.25;102056.92;1780545;79;21690;-73
2022/01/19 03:45:52;;;;;;;9.50;5.05;;;;;;;3.83;78.29;102058.48;1780372;80;21065;-73
2022/01/19 03:50:43;;;;;;;7.65;5.72;;;;;;;3.68;78.43;102046.55;1780328;79;21065;-74
2022/01/19 03:53:10;;;;;;;12.28;5.35;;;;;;;3.63;78.57;102045.29;1780282;79;21437;-74
2022/01/19 03:55:37;;;;;;;9.75;5.37;;;;;;;3.60;78.64;102050.26;1779967;79;21797;-74
2022/01/19 03:58:04;;;;;;;11.88;6.00;;;;;;;3.59;78.76;102051.06;1780134;79;21044;-74
2022/01/19 04:00:34;;;;;;;9.58;5.60;;;;;;;3.59;78.89;102056.28;1780267;79;21105;-74
2022/01/19 04:02:59;;;;;;;12.20;5.85;;;;;;;3.62;78.99;102060.80;1780104;79;21072;-74
2022/01/19 04:05:40;;;;;;;12.75;6.42;;;;;;;3.67;79.07;102047.73;1780130;80;21119;-74
2022/01/19 04:07:54;;;;;;;10.43;6.12;;;;;;;3.70;79.12;102053.17;1777098;80;21773;-74
2022/01/19 04:10:33;;;;;;;9.75;5.28;;;;;;;3.74;79.13;102050.00;1780126;80;21017;-74
2022/01/19 04:12:58;;;;;;;13.62;5.67;;;;;;;3.76;79.11;102040.59;1776930;80;21073;-74
2022/01/19 04:15:21;;;;;;;8.93;5.58;;;;;;;3.76;78.97;102041.89;1752361;80;21054;-75
2022/01/19 04:17:55;;;;;;;10.78;5.97;;;;;;;3.71;78.87;102040.64;1780114;79;21068;-74
2022/01/19 04:20:23;;;;;;;12.58;5.87;;;;;;;3.67;78.83;102035.60;1778983;80;22486;-75
2022/01/19 04:22:53;;;;;;;11.25;6.17;;;;;;;3.61;78.83;102035.16;1779957;79;21312;-74
2022/01/19 04:25:20;;;;;;;10.13;5.83;;;;;;;3.56;78.85;102033.91;1776150;80;21618;-74
2022/01/19 04:27:46;;;;;;;12.37;6.42;;;;;;;3.53;78.85;102039.28;1780473;79;21100;-74
2022/01/19 04:30:14;;;;;;;12.40;6.35;;;;;;;3.49;78.96;102035.55;1780642;79;21041;-74
2022/01/19 04:33:01;;;;;;;9.25;5.55;;;;;;;3.48;79.13;102036.35;1780313;80;22579;-74
2022/01/19 04:35:20;;;;;;;13.98;6.42;;;;;;;3.50;79.26;102029.16;1777682;80;21072;-74
2022/01/19 04:54:37;;;;;;;14.00;6.45;;;;;;;3.60;79.35;102005.10;1750954;80;21660;-74
2022/01/19 05:04:53;;;;;;;12.63;7.45;;;;;;;3.60;79.41;101999.89;1780328;79;21553;-81
2022/01/19 05:07:23;;;;;;;10.88;7.37;;;;;;;3.59;79.38;101995.09;1754476;80;21054;-81
2022/01/19 05:15:22;;;;;;;16.37;8.13;;;;;;;3.62;79.49;101977.10;1779397;79;21053;-81
2022/01/19 05:17:52;;;;;;;13.35;9.05;;;;;;;3.63;79.47;101969.78;1776530;80;21136;-80
2022/01/19 05:20:19;;;;;;;18.45;10.45;;;;;;;3.66;79.49;101970.39;1780458;79;21033;-80
2022/01/19 05:22:51;;;;;;;20.72;10.35;;;;;;;3.64;79.43;101967.70;1780577;80;21086;-80
2022/01/19 05:25:18;;;;;;;15.60;9.23;;;;;;;3.62;79.37;101976.17;1781120;79;21748;-84
2022/01/19 05:27:45;;;;;;;16.67;8.63;;;;;;;3.61;79.34;101976.98;1780208;80;21064;-82
2022/01/19 05:30:13;;;;;;;15.58;9.18;;;;;;;3.57;79.32;101966.74;1780365;79;21061;-80
2022/01/19 05:32:39;;;;;;;19.17;9.88;;;;;;;3.53;79.31;101956.91;1781190;80;21029;-80
2022/01/19 05:35:09;;;;;;;20.52;9.60;;;;;;;3.48;79.29;101953.95;1781040;79;21029;-83
2022/01/19 05:37:37;;;;;;;17.45;10.20;;;;;;;3.45;79.32;101960.62;1780814;79;21815;-76
2022/01/19 05:40:09;;;;;;;15.43;9.45;;;;;;;3.41;79.33;101952.98;1780205;80;21065;-79
2022/01/19 05:42:36;;;;;;;17.07;9.28;;;;;;;3.36;79.30;101949.54;1780491;79;21653;-79
2022/01/19 05:45:07;;;;;;;19.05;9.55;;;;;;;3.33;79.37;101948.93;1781227;79;21057;-79
2022/01/19 05:47:35;;;;;;;18.48;9.18;;;;;;;3.33;79.46;101942.83;1755487;79;22279;-79
2022/01/19 05:50:04;;;;;;;11.70;8.83;;;;;;;3.31;79.43;101939.70;1780136;79;21718;-79
2022/01/19 05:52:34;;;;;;;17.20;9.18;;;;;;;3.28;79.41;101944.70;1780364;79;21049;-79
2022/01/19 05:55:03;;;;;;;15.03;8.70;;;;;;;3.25;79.40;101940.97;1780639;80;21049;-82
2022/01/19 05:57:33;;;;;;;15.65;8.75;;;;;;;3.23;79.46;101944.75;1780314;79;21061;-81
2022/01/19 06:00:02;;;;;;;14.25;8.48;;;;;;;3.22;79.43;101944.23;1780482;79;21088;-79
2022/01/19 06:02:29;;;;;;;13.83;8.60;;;;;;;3.20;79.49;101946.22;1780437;79;21757;-80
2022/01/19 06:04:57;;;;;;;16.80;9.00;;;;;;;3.16;79.45;101942.48;1780350;80;21606;-80
2022/01/19 06:07:28;;;;;;;14.55;8.10;;;;;;;3.14;79.53;101934.07;1780030;79;21559;-79
2022/01/19 06:10:02;;;;;;;12.10;7.53;;;;;;;3.11;79.48;101933.42;1779886;79;21139;-78
2022/01/19 06:12:22;;;;;;;15.72;8.75;;;;;;;3.08;79.48;101928.91;1777699;79;21053;-78
2022/01/19 06:14:48;;;;;;;12.33;8.63;;;;;;;3.06;79.53;101926.97;1779049;80;23019;-78
2022/01/19 06:17:15;;;;;;;11.03;8.30;;;;;;;3.06;79.60;101915.27;1779923;80;21412;-78
2022/01/19 06:19:44;;;;;;;15.10;9.45;;;;;;;3.05;79.55;101903.96;1780394;79;21547;-78
2022/01/19 06:22:10;;;;;;;14.65;9.38;;;;;;;3.00;79.43;101907.02;1780020;80;22037;-78
2022/01/19 06:24:37;;;;;;;18.65;9.63;;;;;;;2.96;79.46;101908.48;1780130;80;21056;-78
2022/01/19 06:27:06;;;;;;;17.57;9.73;;;;;;;2.90;79.42;101890.73;1779478;79;21480;-78
2022/01/19 06:29:33;;;;;;;16.70;9.98;;;;;;;2.86;79.40;101888.70;1780315;80;21041;-79
2022/01/19 06:32:00;;;;;;;20.50;11.00;;;;;;;2.79;79.41;101887.72;1780117;79;22320;-79
2022/01/19 06:34:27;;;;;;;17.45;10.03;;;;;;;2.76;79.55;101874.89;1779918;79;21355;-79
2022/01/19 06:36:53;;;;;;;19.82;10.78;;;;;;;2.74;79.70;101873.50;1780088;79;21547;-79
2022/01/19 06:39:22;;;;;;;19.50;10.70;;;;;;;2.72;79.73;101870.78;1750974;80;21720;-79
2022/01/19 06:41:49;;;;;;;16.50;9.03;;;;;;;2.70;79.70;101872.73;1780026;79;21033;-79
2022/01/19 06:44:15;;;;;;;14.33;10.60;;;;;;;2.68;79.78;101875.62;1780135;80;21073;-79
2022/01/19 06:46:43;;;;;;;14.70;10.18;;;;;;;2.66;79.81;101870.70;1779940;80;21317;-79
2022/01/19 06:49:11;;;;;;;16.23;9.70;;;;;;;2.67;79.93;101865.62;1779583;79;21563;-78
2022/01/19 06:51:38;;;;;;;14.47;9.13;;;;;;;2.68;80.01;101863.92;1780133;79;21740;-79
2022/01/19 06:54:05;;;;;;;14.30;9.38;;;;;;;2.69;80.04;101860.55;1779520;79;21060;-79
2022/01/19 06:56:37;;;;;;;12.25;8.30;;;;;;;2.68;80.07;101854.45;1780011;79;21575;-79
2022/01/19 06:59:00;;;;;;;15.18;8.90;;;;;;;2.69;80.03;101851.45;1779177;79;21523;-79
2022/01/19 07:01:31;;;;;;;14.98;8.85;;;;;;;2.67;79.98;101855.23;1780278;79;21038;-79
2022/01/19 07:03:55;;;;;;;12.60;8.48;;;;;;;2.66;79.97;101844.70;1779456;79;22637;-79
2022/01/19 07:06:21;;;;;;;14.75;9.43;;;;;;;2.66;79.95;101838.20;1780268;80;21498;-79
2022/01/19 07:08:48;;;;;;;13.32;9.35;;;;;;;2.61;79.83;101837.88;1783535;79;21641;-79
2022/01/19 07:11:15;;;;;;;14.05;8.78;;;;;;;2.60;79.95;101839.06;1783573;80;21527;-78
2022/01/19 07:13:42;;;;;;;13.22;9.75;;;;;;;2.59;79.99;101827.77;1783446;80;21605;-78
2022/01/19 07:16:10;;;;;;;15.80;10.68;;;;;;;2.61;80.07;101825.25;1783494;80;21742;-78
2022/01/19 07:18:36;;;;;;;12.37;9.35;;;;;;;2.63;80.13;101825.00;1783298;79;21045;-78
2022/01/19 07:21:07;;;;;;;12.70;9.43;;;;;;;2.63;80.11;101820.70;1758878;80;21216;-78
2022/01/19 07:23:35;;;;;;;14.65;9.28;;;;;;;2.63;80.13;101811.61;1783577;79;21088;-78
2022/01/19 07:26:02;;;;;;;11.50;8.33;;;;;;;2.65;80.17;101807.42;1783392;79;21084;-78
2022/01/19 07:28:28;;;;;;;14.73;8.60;;;;;;;2.66;80.20;101806.61;1783462;80;22564;-78
2022/01/19 07:30:55;;;;;;;18.70;11.35;;;;;;;2.59;80.23;101783.58;1783446;80;21040;-78
2022/01/19 07:33:21;;;;;;;16.35;12.10;;;;;;;2.72;80.27;101809.69;1783734;80;21052;-78
2022/01/19 07:35:51;;;;;;;19.05;11.28;;;;;;;2.79;80.31;101806.23;1783738;80;21093;-78
2022/01/19 07:38:17;;;;;;;16.85;10.65;;;;;;;2.82;80.21;101807.36;1783438;79;21595;-77
2022/01/19 07:40:43;;;;;;;16.32;9.95;;;;;;;2.85;80.17;101804.99;1783529;79;21752;-78
2022/01/19 07:43:10;;;;;;;14.87;10.70;;;;;;;2.87;80.14;101803.78;1783443;80;21044;-78
2022/01/19 07:45:37;;;;;;;16.57;11.20;;;;;;;2.90;80.16;101799.70;1783584;79;21052;-78
2022/01/19 07:48:05;;;;;;;13.48;10.48;;;;;;;2.91;80.08;101805.43;1783721;79;21136;-78
2022/01/19 07:50:32;;;;;;;18.62;11.68;;;;;;;2.94;80.11;101807.34;1783646;79;21608;-79
2022/01/19 07:52:59;;;;;;;20.92;16.10;;;;;;;2.94;80.08;101804.73;1783559;79;22566;-77
2022/01/19 07:55:26;;;;;;;20.12;13.22;;;;;;;2.97;80.10;101802.78;1783565;79;21069;-77
2022/01/19 07:57:53;;;;;;;22.40;16.82;;;;;;;2.99;80.08;101789.48;1783658;80;21095;-77
2022/01/19 08:00:19;;;;;;;21.20;15.68;;;;;;;3.01;80.09;101790.09;1783672;80;21043;-77
2022/01/19 08:02:46;;;;;;;18.37;12.85;;;;;;;3.05;80.12;101790.81;1783585;80;21161;-78
2022/01/19 08:05:13;;;;;;;19.70;14.45;;;;;;;3.10;80.18;101784.66;1783571;80;21752;-78
2022/01/19 08:07:39;;;;;;;19.90;13.72;;;;;;;3.18;80.15;101783.90;1781856;79;21080;-78
2022/01/19 08:10:07;;;;;;;18.10;13.40;;;;;;;3.23;80.14;101776.00;1780454;80;21150;-78
2022/01/19 08:12:34;;;;;;;19.98;12.93;;;;;;;3.23;80.04;101765.22;1780751;80;21198;-78
2022/01/19 08:15:01;;;;;;;18.25;13.03;;;;;;;3.33;80.02;101767.17;1780088;80;21068;-77
2022/01/19 08:17:28;;;;;;;20.05;11.68;;;;;;;3.37;79.95;101768.78;1780235;79;23029;-79
2022/01/19 08:19:55;;;;;;;27.82;17.30;;;;;;;3.41;79.93;101755.59;1780473;80;21116;-77
2022/01/19 08:22:23;;;;;;;18.40;12.95;;;;;;;3.45;79.88;101748.12;1751008;80;21073;-77
2022/01/19 08:24:50;;;;;;;18.92;13.30;;;;;;;3.50;79.78;101743.22;1780576;79;21041;-78
2022/01/19 08:27:17;;;;;;;14.00;10.55;;;;;;;3.55;79.79;101737.02;1780418;80;21064;-78
2022/01/19 08:29:44;;;;;;;13.90;10.63;;;;;;;3.59;79.70;101737.75;1780203;79;21758;-78
2022/01/19 08:32:10;;;;;;;17.05;10.58;;;;;;;3.62;79.64;101728.46;1780060;79;21047;-78
2022/01/19 08:34:37;;;;;;;14.43;10.60;;;;;;;3.66;79.58;101729.16;1780203;80;21087;-78
2022/01/19 08:37:04;;;;;;;15.95;10.63;;;;;;;3.70;79.54;101726.38;1780053;80;21567;-78
2022/01/19 08:39:30;;;;;;;15.03;10.80;;;;;;;3.75;79.45;101723.66;1780250;80;21104;-78
2022/01/19 08:41:57;;;;;;;16.37;11.93;;;;;;;3.81;79.46;101721.50;1780174;80;21837;-77
2022/01/19 08:44:24;;;;;;;19.52;12.13;;;;;;;3.88;79.41;101724.09;1780169;79;21056;-78
2022/01/19 08:46:50;;;;;;;14.93;11.38;;;;;;;3.87;79.34;101710.59;1780259;79;21112;-77
2022/01/19 08:49:17;;;;;;;23.55;14.00;;;;;;;3.99;79.29;101717.91;1780416;79;22306;-78
2022/01/19 08:51:45;;;;;;;27.42;16.10;;;;;;;4.04;79.18;101719.13;1779845;79;21041;-77
2022/01/19 08:54:15;;;;;;;28.87;16.85;;;;;;;4.13;79.19;101717.92;1780265;80;21906;-77
2022/01/19 08:56:40;;;;;;;24.70;16.07;;;;;;;4.19;79.09;101711.43;1779346;79;21065;-77
2022/01/19 08:59:07;;;;;;;27.10;17.12;;;;;;;4.24;78.95;101715.63;1780285;79;21049;-77
2022/01/19 09:01:34;;;;;;;26.75;15.68;;;;;;;4.27;78.79;101717.14;1780389;79;21665;-78
2022/01/19 09:04:00;;;;;;;21.30;15.08;;;;;;;4.30;78.80;101712.14;1780283;79;21166;-78
2022/01/19 09:06:29;;;;;;;21.33;15.55;;;;;;;4.34;78.69;101702.41;1780180;79;21707;-78
2022/01/19 09:08:57;;;;;;;18.57;13.03;;;;;;;4.34;78.60;101695.90;1782196;79;21634;-78
2022/01/19 09:11:24;;;;;;;17.77;12.30;;;;;;;4.40;78.55;101702.81;1783371;79;21056;-78
2022/01/19 09:13:51;;;;;;;17.48;12.65;;;;;;;4.47;78.62;101712.84;1783377;79;21049;-78
2022/01/19 09:16:17;;;;;;;15.58;11.95;;;;;;;4.56;78.55;101712.92;1783050;79;22065;-78
2022/01/19 09:18:44;;;;;;;18.00;12.35;;;;;;;4.62;78.50;101706.81;1783438;80;21740;-78
2022/01/19 09:21:11;;;;;;;19.55;12.00;;;;;;;4.70;78.44;101702.98;1783300;79;21033;-78
2022/01/19 09:23:37;;;;;;;18.52;11.80;;;;;;;4.77;78.23;101701.69;1783447;79;21577;-78
2022/01/19 09:26:04;;;;;;;19.92;12.40;;;;;;;4.79;78.04;101701.37;1783272;80;21555;-78
2022/01/19 09:28:33;;;;;;;17.57;12.58;;;;;;;4.82;78.02;101706.39;1783357;79;21040;-78
2022/01/19 09:31:04;;;;;;;16.65;10.25;;;;;;;4.85;77.91;101690.91;1783176;80;21766;-78
2022/01/19 09:33:30;;;;;;;14.87;10.82;;;;;;;4.84;77.71;101685.59;1783174;80;21045;-78
2022/01/19 09:38:27;;;;;;;15.63;11.08;;;;;;;4.75;77.43;101685.93;1783616;79;21171;-78
2022/01/19 09:40:54;;;;;;;16.60;11.33;;;;;;;4.74;77.49;101680.61;1783602;80;21353;-78
2022/01/19 09:43:22;;;;;;;15.30;11.18;;;;;;;4.74;77.48;101680.20;1782896;80;21072;-78
2022/01/19 09:45:54;;;;;;;17.00;11.40;;;;;;;4.75;77.45;101678.11;1783321;79;21618;-78
2022/01/19 09:48:21;;;;;;;15.68;11.75;;;;;;;4.78;77.42;101676.08;1783437;79;21515;-78
2022/01/19 09:50:49;;;;;;;17.80;12.25;;;;;;;4.82;77.47;101667.64;1782979;80;21068;-78
2022/01/19 09:53:16;;;;;;;17.67;11.83;;;;;;;4.90;77.49;101665.51;1783522;79;21663;-78
2022/01/19 09:55:46;;;;;;;15.75;10.75;;;;;;;4.96;77.32;101668.52;1783545;80;21732;-78
2022/01/19 09:58:15;;;;;;;17.05;10.75;;;;;;;4.99;77.25;101664.40;1759088;80;21128;-78
2022/01/19 10:00:41;;;;;;;21.23;12.03;;;;;;;5.03;77.16;101668.07;1783130;80;21077;-78
2022/01/19 10:03:19;;;;;;;16.95;11.53;;;;;;;5.08;77.10;101660.55;1783294;79;21627;-77
2022/01/19 10:06:07;;;;;;;19.90;10.88;;;;;;;5.11;76.95;101667.27;1783562;79;21528;-78
2022/01/19 10:08:44;;;;;;;14.78;10.35;;;;;;;5.13;76.79;101661.33;1781324;80;21053;-78
2022/01/19 10:16:58;;;;;;;16.25;10.55;;;;;;;5.16;76.77;101666.75;1779552;79;21073;-78
2022/01/19 10:17:06;;;;;;;17.70;10.77;;;;;;;5.30;76.75;101675.83;1780029;79;21065;-78
2022/01/19 10:19:45;;;;;;;13.78;10.45;;;;;;;5.36;76.65;101665.75;1780421;80;21732;-78
2022/01/19 10:22:27;;;;;;;18.57;12.90;;;;;;;5.41;76.55;101662.61;1779611;79;21795;-78
2022/01/19 10:24:56;;;;;;;20.62;12.58;;;;;;;5.43;76.33;101656.17;1780288;80;21150;-78
2022/01/19 10:27:26;;;;;;;19.10;12.70;;;;;;;5.47;76.33;101649.02;1780512;80;21142;-78
2022/01/19 10:30:09;;;;;;;25.05;15.40;;;;;;;5.54;76.31;101655.52;1780335;80;21258;-78
2022/01/19 10:32:45;;;;;;;23.40;14.33;;;;;;;5.56;76.10;101653.48;1780429;80;21599;-78
2022/01/19 10:35:25;;;;;;;29.87;21.93;;;;;;;5.62;76.08;101651.64;1780171;79;23542;-78
2022/01/19 10:38:19;;;;;;;26.12;18.52;;;;;;;5.70;76.05;101651.68;1780029;79;21112;-78
2022/01/19 10:41:07;;;;;;;26.02;17.67;;;;;;;5.79;75.97;101643.50;1780570;79;21068;-78
2022/01/19 10:43:40;;;;;;;23.12;16.87;;;;;;;5.85;75.78;101646.45;1780267;79;21084;-78
2022/01/19 10:46:29;;;;;;;25.72;17.48;;;;;;;5.89;75.60;101635.37;1780433;79;21084;-78
2022/01/19 10:49:05;;;;;;;31.02;19.77;;;;;;;5.98;75.53;101629.81;1780290;80;21794;-77
2022/01/19 10:51:39;;;;;;;30.00;25.00;;;;;;;6.03;75.41;101629.27;1780319;80;21101;-77
2022/01/19 10:54:22;;;;;;;24.27;18.55;;;;;;;6.10;75.22;101624.38;1779828;79;21041;-77
2022/01/19 10:56:54;;;;;;;23.73;16.48;;;;;;;6.17;75.20;101622.20;1780220;79;22170;-78
2022/01/19 10:59:26;;;;;;;;;;;;;;;6.26;75.04;101606.15;1783278;79;21084;-78
2022/01/19 11:01:56;;;;;;;23.62;16.07;;;;;;;6.33;74.80;101600.88;1780472;80;22581;-78
2022/01/19 11:04:34;;;;;;;26.10;16.10;;;;;;;6.34;74.67;101590.47;1780221;79;21045;-78
2022/01/19 11:07:05;;;;;;;22.98;18.02;;;;;;;6.36;74.58;101586.64;1780210;79;22311;-78
2022/01/19 11:09:35;;;;;;;27.42;18.70;;;;;;;6.36;74.36;101582.33;1780011;79;21065;-78
2022/01/19 11:12:07;;;;;;;36.93;27.22;;;;;;;6.31;74.14;101579.86;1780664;79;21690;-78
2022/01/19 11:14:35;;;;;;;21.93;17.40;;;;;;;6.28;74.25;101575.75;1780550;79;22742;-78
2022/01/19 11:17:03;;;;;;;25.65;19.57;;;;;;;6.17;74.18;101549.01;1780327;80;21104;-78
2022/01/19 11:19:30;;;;;;;34.48;26.95;;;;;;;6.27;74.08;101561.28;1779997;80;20986;-79
2022/01/19 11:22:08;;;;;;;29.02;23.40;;;;;;;6.21;73.90;101559.23;1780152;79;22172;-79
2022/01/19 11:24:55;;;;;;;32.00;23.75;;;;;;;6.18;73.90;101558.66;1779921;80;21077;-79
2022/01/19 11:27:23;;;;;;;27.87;21.90;;;;;;;6.15;73.90;101552.36;1780140;79;21690;-79
2022/01/19 11:30:22;;;;;;;25.35;18.42;;;;;;;6.16;73.88;101546.34;1780103;79;21594;-79
2022/01/19 11:33:24;;;;;;;30.43;23.22;;;;;;;6.16;73.91;101538.08;1779564;80;21010;-79
2022/01/19 11:35:48;;;;;;;27.37;19.17;;;;;;;6.18;73.88;101529.02;1778900;79;21092;-79
2022/01/19 11:38:44;;;;;;;30.05;22.85;;;;;;;6.22;73.79;101527.95;1780313;79;21053;-79
2022/01/19 11:41:19;;;;;;;26.23;19.27;;;;;;;6.21;73.69;101523.55;1763164;79;21998;-79
2022/01/19 11:43:56;;;;;;;30.92;22.32;;;;;;;6.20;73.64;101508.67;1750781;79;21077;-79
2022/01/19 11:46:32;;;;;;;29.32;20.97;;;;;;;6.20;73.53;101506.47;1778494;79;21061;-79
2022/01/19 11:49:00;;;;;;;22.45;17.95;;;;;;;6.15;73.40;101502.70;1780323;79;21038;-79
2022/01/19 11:51:30;;;;;;;24.77;17.27;;;;;;;6.10;73.36;101495.00;1780329;79;22410;-79
2022/01/19 11:54:16;;;;;;;25.90;19.77;;;;;;;6.06;73.31;101484.78;1780139;80;22740;-79
2022/01/19 11:57:05;;;;;;;34.43;24.20;;;;;;;5.98;73.22;101473.02;1775257;79;21647;-79
2022/01/19 11:59:37;;;;;;;27.52;20.48;;;;;;;5.94;73.32;101470.61;1780068;80;21332;-79
2022/01/19 12:02:35;;;;;;;26.37;19.42;;;;;;;5.91;73.38;101466.54;1776575;80;21760;-79
2022/01/19 12:05:19;;;;;;;34.63;27.82;;;;;;;5.88;73.32;101458.52;1779896;79;21037;-79
2022/01/19 12:08:01;;;;;;;29.30;22.70;;;;;;;5.75;73.23;101437.76;1780079;80;21711;-79
2022/01/19 12:10:39;;;;;;;26.50;19.52;;;;;;;5.78;73.26;101444.44;1779674;80;21033;-79
2022/01/19 12:19:13;;;;;;;29.23;21.00;;;;;;;5.81;73.38;101414.58;1780215;79;21512;-77
2022/01/19 12:21:55;;;;;;;25.50;18.77;;;;;;;5.84;73.24;101410.84;1780134;80;22191;-78
2022/01/19 12:24:26;;;;;;;25.00;17.98;;;;;;;5.81;73.18;101398.48;1780420;80;21050;-78
2022/01/19 12:27:07;;;;;;;22.87;15.63;;;;;;;5.79;73.13;101392.70;1780090;80;21097;-78
2022/01/19 12:29:38;;;;;;;21.33;14.70;;;;;;;5.71;73.04;101393.59;1780380;79;21045;-78
2022/01/19 12:32:21;;;;;;;26.50;16.85;;;;;;;5.61;72.93;101388.27;1780696;79;21061;-78
2022/01/19 12:34:53;;;;;;;22.22;17.10;;;;;;;5.52;72.98;101376.01;1780112;79;21081;-78
2022/01/19 12:37:51;;;;;;;28.15;20.12;;;;;;;5.44;73.04;101374.66;1780381;80;21113;-78
2022/01/19 12:40:24;;;;;;;20.40;14.98;;;;;;;5.39;73.14;101369.20;1780614;80;21563;-78
2022/01/19 12:42:57;;;;;;;21.20;13.85;;;;;;;5.35;73.24;101366.31;1780398;79;21057;-78
2022/01/19 12:45:30;;;;;;;20.55;14.95;;;;;;;5.33;73.31;101358.42;1780628;79;21124;-78
2022/01/19 12:47:59;;;;;;;23.62;16.50;;;;;;;5.29;73.25;101351.63;1780788;79;21755;-78
2022/01/19 12:50:39;;;;;;;34.53;22.07;;;;;;;5.31;73.38;101346.08;1780562;79;21057;-78
2022/01/19 12:53:19;;;;;;;39.95;25.57;;;;;;;5.30;73.33;101343.00;1780801;80;21085;-78
2022/01/19 12:55:52;;;;;;;23.90;16.45;;;;;;;5.28;73.23;101338.10;1780417;80;21299;-78
2022/01/19 12:58:25;;;;;;;18.42;14.13;;;;;;;5.22;73.16;101336.94;1780351;79;21407;-78
2022/01/19 13:00:56;;;;;;;22.50;16.85;;;;;;;5.18;73.12;101324.53;1780367;80;21393;-78
2022/01/19 13:03:26;;;;;;;24.12;16.77;;;;;;;5.15;73.15;101330.88;1779732;79;21557;-79